createdAt,value
2024-01-06T00:00:25.272Z,19.10
2024-01-06T00:05:30.382Z,19.30
2024-01-06T00:10:35.427Z,19.30
2024-01-06T00:15:40.457Z,19.40
2024-01-06T00:20:45.513Z,19.50
2024-01-06T00:25:50.940Z,19.80
2024-01-06T00:30:58.080Z,20.20
2024-01-06T00:36:02.985Z,20.30
2024-01-06T00:41:07.751Z,20.30
2024-01-06T00:46:12.682Z,20.40
2024-01-06T00:51:17.505Z,20.50
2024-01-06T00:56:22.379Z,20.60
2024-01-06T01:01:27.470Z,20.70
2024-01-06T01:06:32.543Z,21.00
2024-01-06T01:11:37.707Z,21.50
2024-01-06T01:16:42.742Z,21.40
2024-01-06T01:21:47.984Z,21.40
2024-01-06T01:26:53.141Z,21.20
2024-01-06T01:31:58.038Z,21.10
2024-01-06T01:37:03.279Z,21.20
2024-01-06T01:42:08.264Z,21.30
2024-01-06T01:47:13.632Z,21.30
2024-01-06T01:52:19.022Z,21.30
2024-01-06T01:57:26.492Z,21.30
2024-01-06T02:02:31.931Z,21.20
2024-01-06T02:07:37.059Z,21.50
2024-01-06T02:12:41.868Z,21.70
2024-01-06T02:17:46.692Z,22.10
2024-01-06T02:22:51.995Z,22.90
2024-01-06T02:27:57.564Z,23.10
2024-01-06T02:33:02.500Z,23.20
2024-01-06T02:38:07.448Z,23.50
2024-01-06T02:43:12.762Z,23.50
2024-01-06T02:48:18.539Z,23.30
2024-01-06T02:53:23.429Z,23.10
2024-01-06T02:58:29.520Z,22.90
2024-01-06T03:03:34.577Z,22.30
2024-01-06T03:08:39.953Z,22.10
2024-01-06T03:13:45.058Z,22.10
2024-01-06T03:18:51.293Z,22.40
2024-01-06T03:23:57.779Z,22.60
2024-01-06T03:29:04.785Z,22.90
2024-01-06T03:34:11.009Z,23.30
2024-01-06T03:39:17.758Z,23.50
2024-01-06T03:44:22.626Z,24.30
2024-01-06T03:49:28.162Z,25.30
2024-01-06T03:54:35.134Z,25.60
2024-01-06T03:59:41.647Z,26.00
2024-01-06T04:10:21.121Z,27.20
2024-01-06T04:15:28.244Z,26.00
2024-01-06T04:20:37.583Z,25.80
2024-01-06T04:25:43.135Z,26.60
2024-01-06T04:30:48.291Z,27.10
2024-01-06T04:35:53.195Z,28.30
2024-01-06T04:40:58.285Z,27.90
2024-01-06T04:46:03.171Z,29.20
2024-01-06T04:51:12.344Z,30.50
2024-01-06T04:56:17.908Z,30.00
2024-01-06T05:01:23.476Z,29.50
2024-01-06T05:06:28.669Z,28.50
2024-01-06T05:11:33.595Z,28.00
2024-01-06T05:16:38.341Z,27.80
2024-01-06T05:21:43.482Z,27.30
2024-01-06T05:26:48.600Z,26.90
2024-01-06T05:31:53.534Z,27.70
2024-01-06T05:36:58.261Z,28.80
2024-01-06T05:42:03.009Z,29.60
2024-01-06T05:47:08.884Z,30.20
2024-01-06T05:52:14.095Z,31.50
2024-01-06T05:57:20.102Z,31.60
2024-01-06T06:02:25.000Z,30.20
2024-01-06T06:07:29.757Z,29.20
2024-01-06T06:12:34.615Z,30.00
2024-01-06T06:17:39.927Z,30.90
2024-01-06T06:22:44.806Z,33.50
2024-01-06T06:27:49.919Z,35.20
2024-01-06T06:32:55.092Z,35.00
2024-01-06T06:38:00.360Z,36.50
2024-01-06T06:43:05.452Z,37.30
2024-01-06T06:48:10.701Z,36.70
2024-01-06T06:53:16.090Z,35.00
2024-01-06T06:58:21.064Z,34.90
2024-01-06T07:03:26.163Z,33.90
2024-01-06T07:08:31.188Z,31.30
2024-01-06T07:13:36.234Z,30.00
2024-01-06T07:18:41.506Z,29.80
2024-01-06T07:23:47.260Z,29.30
2024-01-06T07:28:52.314Z,29.10
2024-01-06T07:33:57.816Z,29.90
2024-01-06T07:39:02.953Z,29.70
2024-01-06T07:44:07.926Z,29.30
2024-01-06T07:49:13.029Z,28.90
2024-01-06T07:54:18.260Z,28.00
2024-01-06T07:59:23.495Z,27.30
2024-01-06T08:04:29.139Z,26.80
2024-01-06T08:09:34.163Z,26.40
2024-01-06T08:14:39.082Z,26.60
2024-01-06T08:19:44.236Z,26.90
2024-01-06T08:24:49.499Z,27.40
2024-01-06T08:29:54.684Z,27.50
2024-01-06T08:34:59.735Z,26.90
2024-01-06T08:40:06.789Z,26.70
2024-01-06T08:45:12.166Z,26.70
2024-01-06T08:50:17.072Z,26.50
2024-01-06T08:55:21.988Z,26.30
2024-01-06T09:00:26.854Z,26.10
2024-01-06T09:05:32.151Z,25.90
2024-01-06T09:10:37.280Z,25.70
2024-01-06T09:15:42.446Z,25.60
2024-01-06T09:20:50.004Z,25.60
2024-01-06T09:25:55.252Z,25.40
2024-01-06T09:31:00.273Z,25.00
2024-01-06T09:36:05.737Z,24.90
2024-01-06T09:41:10.754Z,24.80
2024-01-06T09:46:31.845Z,24.70
2024-01-06T09:51:39.908Z,24.60
2024-01-06T09:56:49.516Z,24.40
2024-01-06T10:01:55.358Z,24.30
2024-01-06T10:07:00.805Z,24.20
2024-01-06T10:12:05.813Z,24.10
2024-01-06T10:17:10.799Z,23.90
2024-01-06T10:22:15.641Z,23.80
2024-01-06T10:27:24.104Z,23.80
2024-01-06T10:32:31.086Z,23.80
2024-01-06T10:37:35.944Z,23.70
2024-01-06T10:42:44.712Z,23.30
2024-01-06T10:47:51.601Z,23.20
2024-01-06T10:52:57.744Z,23.30
2024-01-06T10:58:03.533Z,23.40
2024-01-06T11:03:08.845Z,23.50
2024-01-06T11:08:14.384Z,23.40
2024-01-06T11:13:25.994Z,23.30
2024-01-06T11:18:42.929Z,23.30
2024-01-06T11:23:48.376Z,23.30
2024-01-06T11:28:55.175Z,23.30
2024-01-06T11:34:14.427Z,23.20
2024-01-06T11:39:43.639Z,23.20
2024-01-06T11:44:53.181Z,23.00
2024-01-06T11:49:58.761Z,23.10
2024-01-06T11:55:04.309Z,23.00
2024-01-06T12:00:09.960Z,22.80
2024-01-06T12:05:20.088Z,22.70
2024-01-06T12:10:26.405Z,22.60
2024-01-06T12:15:33.261Z,22.60
2024-01-06T12:20:38.400Z,22.60
2024-01-06T12:25:46.774Z,22.60
2024-01-06T12:30:51.718Z,22.50
2024-01-06T12:35:57.055Z,22.30
2024-01-06T12:41:03.463Z,22.20
2024-01-06T12:46:08.606Z,21.90
2024-01-06T12:51:13.764Z,21.80
2024-01-06T12:56:18.835Z,21.80
2024-01-06T13:01:23.994Z,21.80
2024-01-06T13:06:29.291Z,21.70
2024-01-06T13:11:35.018Z,21.70
2024-01-06T13:16:39.898Z,21.70
2024-01-06T13:21:44.951Z,21.60
2024-01-06T13:26:50.340Z,21.50
2024-01-06T13:31:55.679Z,21.50
2024-01-06T13:37:01.020Z,21.40
2024-01-06T13:42:07.072Z,21.40
2024-01-06T13:47:11.804Z,21.40
2024-01-06T13:52:16.684Z,21.30
2024-01-06T13:57:22.691Z,21.30
2024-01-06T14:02:27.803Z,21.30
2024-01-06T14:07:32.858Z,21.20
2024-01-06T14:12:37.740Z,21.20
2024-01-06T14:17:43.132Z,21.20
2024-01-06T14:22:51.759Z,21.50
2024-01-06T14:27:57.157Z,21.60
2024-01-06T14:33:02.159Z,21.50
2024-01-06T14:38:08.038Z,21.40
2024-01-06T14:43:12.863Z,21.30
2024-01-06T14:48:17.906Z,21.40
2024-01-06T14:53:22.868Z,21.30
2024-01-06T14:58:27.702Z,21.20
2024-01-06T15:03:33.580Z,21.20
2024-01-06T15:08:38.553Z,21.30
2024-01-06T15:13:43.516Z,21.20
2024-01-06T15:18:49.543Z,21.10
2024-01-06T15:23:55.814Z,20.90
2024-01-06T15:29:02.636Z,21.00
2024-01-06T15:34:07.638Z,20.90
2024-01-06T15:39:12.689Z,20.80
2024-01-06T15:44:17.600Z,20.80
2024-01-06T15:49:22.541Z,20.80
2024-01-06T15:54:27.593Z,20.70
2024-01-06T15:59:32.471Z,20.70
2024-01-06T16:04:37.177Z,20.70
2024-01-06T16:09:42.370Z,20.70
2024-01-06T16:14:47.350Z,20.70
2024-01-06T16:19:52.171Z,20.80
2024-01-06T16:24:56.961Z,20.80
2024-01-06T16:30:02.816Z,20.70
2024-01-06T16:35:08.797Z,20.70
2024-01-06T16:40:13.415Z,20.70
2024-01-06T16:45:18.541Z,20.80
2024-01-06T16:50:23.875Z,21.00
2024-01-06T16:55:28.995Z,21.00
2024-01-06T17:00:34.313Z,21.10
2024-01-06T17:05:41.286Z,21.10
2024-01-06T17:10:46.975Z,21.10
2024-01-06T17:15:53.056Z,21.10
2024-01-06T17:20:58.083Z,21.10
2024-01-06T17:26:03.006Z,21.10
2024-01-06T17:31:07.812Z,21.00
2024-01-06T17:36:13.153Z,21.00
2024-01-06T17:41:18.182Z,21.10
2024-01-06T17:46:23.627Z,21.10
2024-01-06T17:51:30.150Z,21.20
2024-01-06T17:56:35.264Z,21.20
2024-01-06T18:01:40.120Z,21.30
2024-01-06T18:06:45.831Z,21.50
2024-01-06T18:11:51.335Z,21.50
2024-01-06T18:16:56.178Z,21.30
2024-01-06T18:22:01.156Z,21.20
2024-01-06T18:27:07.780Z,21.10
2024-01-06T18:32:15.469Z,21.10
2024-01-06T18:37:21.941Z,21.10
2024-01-06T18:42:27.161Z,21.00
2024-01-06T18:47:32.411Z,20.80
2024-01-06T18:52:38.108Z,20.80
2024-01-06T18:57:43.104Z,20.90
2024-01-06T19:02:52.636Z,20.70
2024-01-06T19:07:57.649Z,20.70
2024-01-06T19:13:02.613Z,20.60
2024-01-06T19:18:08.598Z,20.50
2024-01-06T19:23:15.181Z,20.60
2024-01-06T19:28:20.323Z,20.50
2024-01-06T19:33:26.331Z,20.50
2024-01-06T19:38:31.474Z,20.50
2024-01-06T19:43:36.306Z,20.70
2024-01-06T19:48:41.239Z,20.70
2024-01-06T19:53:46.544Z,20.60
2024-01-06T19:58:51.490Z,20.70
2024-01-06T20:03:56.750Z,20.70
2024-01-06T20:09:01.843Z,20.80
2024-01-06T20:14:06.959Z,21.00
2024-01-06T20:19:11.995Z,21.20
2024-01-06T20:24:17.080Z,21.10
2024-01-06T20:29:22.079Z,21.10
2024-01-06T20:34:30.142Z,20.90
2024-01-06T20:39:35.351Z,20.80
2024-01-06T20:44:40.219Z,20.80
2024-01-06T20:49:45.079Z,20.70
2024-01-06T20:54:50.140Z,20.80
2024-01-06T20:59:54.960Z,20.70
2024-01-06T21:05:06.318Z,20.70
2024-01-06T21:10:16.253Z,20.70
2024-01-06T21:15:23.179Z,20.70
2024-01-06T21:20:28.247Z,20.70
2024-01-06T21:25:33.098Z,20.70
2024-01-06T21:30:37.960Z,20.60
2024-01-06T21:35:42.753Z,20.70
2024-01-06T21:40:48.135Z,20.70
2024-01-06T21:45:54.124Z,20.70
2024-01-06T21:50:59.840Z,20.60
2024-01-06T21:56:05.322Z,20.60
2024-01-06T22:01:10.757Z,20.70
2024-01-06T22:06:15.675Z,20.70
2024-01-06T22:11:20.710Z,20.70
2024-01-06T22:16:26.021Z,20.80
2024-01-06T22:21:31.564Z,20.90
2024-01-06T22:26:38.195Z,20.90
2024-01-06T22:31:46.671Z,20.90
2024-01-06T22:36:51.819Z,20.80
2024-01-06T22:41:56.729Z,20.80
2024-01-06T22:47:02.094Z,20.80
2024-01-06T22:52:07.188Z,20.70
2024-01-06T22:57:12.438Z,20.70
2024-01-06T23:02:17.806Z,20.60
2024-01-06T23:07:22.866Z,20.60
2024-01-06T23:12:28.543Z,20.70
2024-01-06T23:17:33.389Z,20.70
2024-01-06T23:22:38.530Z,20.70
2024-01-06T23:27:43.818Z,20.70
2024-01-06T23:32:48.985Z,20.70
2024-01-06T23:37:55.945Z,20.70
2024-01-06T23:43:01.120Z,20.70
2024-01-06T23:48:06.459Z,20.80
2024-01-06T23:53:13.165Z,20.80
2024-01-06T23:58:18.163Z,20.90
